Time;durP1;ratioP1;P1;durP2;ratioP2;P2;SDS_P1;SDS_P2;PMS_P1;PMS_P2;Temp;Humidity;BMP_temperature;BMP_pressure;BME280_temperature;BME280_humidity;BME280_pressure;Samples;Min_cycle;Max_cycle;Signal;HPM_P1;HPM_P2
2022/07/12 00:01:36;;;;;;;3.47;3.17;;;;;;;14.84;90.71;102484.88;5013929;28;20050;-49
2022/07/12 00:04:02;;;;;;;3.33;3.08;;;;;;;14.83;90.95;102484.13;5014059;28;20499;-49
2022/07/12 00:06:29;;;;;;;3.60;3.40;;;;;;;14.85;90.88;102484.44;5013356;28;20050;-49
2022/07/12 00:08:56;;;;;;;4.38;3.35;;;;;;;14.81;90.72;102475.75;5014361;28;20065;-49
2022/07/12 00:11:22;;;;;;;5.32;4.13;;;;;;;14.76;90.65;102481.66;5013918;28;20081;-48
2022/07/12 00:13:48;;;;;;;4.13;3.83;;;;;;;14.72;90.94;102488.28;5013558;28;20065;-50
2022/07/12 00:16:15;;;;;;;4.50;4.05;;;;;;;14.68;90.97;102485.72;5014025;28;20502;-50
2022/07/12 00:18:41;;;;;;;4.55;4.22;;;;;;;14.63;91.06;102489.66;5012499;28;20541;-49
2022/07/12 00:21:08;;;;;;;4.57;4.18;;;;;;;14.61;91.03;102499.31;5013746;28;20046;-50
2022/07/12 00:23:34;;;;;;;4.50;4.20;;;;;;;14.58;91.33;102492.13;5014204;28;20056;-49
2022/07/12 00:26:04;;;;;;;4.40;4.00;;;;;;;14.55;91.35;102498.31;5011460;28;20054;-48
2022/07/12 00:28:31;;;;;;;4.90;4.00;;;;;;;14.56;90.96;102491.78;5014057;28;20493;-49
2022/07/12 00:30:58;;;;;;;4.30;4.00;;;;;;;14.53;90.78;102493.38;5013811;28;20054;-49
2022/07/12 00:33:25;;;;;;;4.30;4.00;;;;;;;14.51;91.25;102498.41;5013343;28;20054;-48
2022/07/12 00:35:52;;;;;;;4.50;4.10;;;;;;;14.47;91.21;102491.63;5013410;28;20461;-48
2022/07/12 00:38:18;;;;;;;4.45;4.03;;;;;;;14.46;91.23;102498.19;5013998;28;20058;-47
2022/07/12 00:40:45;;;;;;;5.97;4.28;;;;;;;14.42;91.53;102492.16;5013445;28;20502;-49
2022/07/12 00:43:11;;;;;;;6.85;4.35;;;;;;;14.36;91.59;102491.91;5013789;28;20119;-49
2022/07/12 00:45:38;;;;;;;4.85;4.40;;;;;;;14.34;91.97;102486.97;5013715;28;20050;-48
2022/07/12 00:48:05;;;;;;;4.30;4.00;;;;;;;14.35;91.67;102493.09;5013234;28;20059;-54
2022/07/12 00:50:31;;;;;;;6.85;3.90;;;;;;;14.35;91.44;102493.84;5017141;28;20054;-47
2022/07/12 00:52:58;;;;;;;3.78;3.47;;;;;;;14.33;91.20;102490.84;5016313;28;20089;-49
2022/07/12 00:55:24;;;;;;;4.03;3.72;;;;;;;14.32;91.12;102501.97;5017098;28;20050;-49
2022/07/12 00:57:51;;;;;;;4.20;3.83;;;;;;;14.31;91.24;102498.53;5015240;28;20129;-47
2022/07/12 01:00:26;;;;;;;4.07;3.78;;;;;;;14.25;90.98;102500.22;5016411;28;20518;-52
2022/07/12 01:02:55;;;;;;;5.82;4.10;;;;;;;14.21;91.29;102506.84;5016735;28;20055;-52
2022/07/12 01:05:22;;;;;;;3.90;3.70;;;;;;;14.19;91.41;102509.94;5016476;28;20060;-53
2022/07/12 01:07:49;;;;;;;5.32;3.90;;;;;;;14.17;91.42;102517.66;5015876;28;20070;-47
2022/07/12 01:10:16;;;;;;;4.53;4.13;;;;;;;14.13;91.61;102516.97;5015424;28;20050;-49
2022/07/12 01:12:43;;;;;;;4.43;4.13;;;;;;;14.06;92.18;102519.81;5017011;28;20054;-49
2022/07/12 01:15:09;;;;;;;5.00;4.50;;;;;;;14.02;92.25;102521.84;5016632;28;20549;-51
2022/07/12 01:17:36;;;;;;;4.82;4.15;;;;;;;13.99;92.08;102518.06;5016443;28;20060;-50
2022/07/12 01:20:04;;;;;;;4.38;4.03;;;;;;;13.98;92.30;102516.59;5016678;28;20142;-53
2022/07/12 01:22:34;;;;;;;6.00;3.75;;;;;;;13.93;92.20;102521.69;5016298;28;20057;-52
2022/07/12 01:25:02;;;;;;;4.45;4.13;;;;;;;13.90;92.22;102523.28;5015987;28;20142;-49
2022/07/12 01:27:29;;;;;;;4.50;4.10;;;;;;;13.90;92.20;102522.53;5015533;28;20050;-47
2022/07/12 01:29:56;;;;;;;4.15;3.92;;;;;;;13.90;92.47;102525.22;5016434;28;20058;-51
2022/07/12 01:32:26;;;;;;;4.85;3.83;;;;;;;13.89;92.10;102527.13;5016670;28;20053;-48
2022/07/12 01:34:58;;;;;;;4.60;4.30;;;;;;;13.86;92.25;102522.63;5016625;28;20053;-48
2022/07/12 01:37:29;;;;;;;3.92;3.47;;;;;;;13.85;92.05;102523.78;5016218;28;20058;-48
2022/07/12 01:39:58;;;;;;;4.03;3.72;;;;;;;13.85;91.75;102523.78;5016661;28;20510;-47
2022/07/12 01:42:26;;;;;;;3.95;3.75;;;;;;;13.84;91.52;102518.84;5016343;28;20149;-50
2022/07/12 01:44:53;;;;;;;3.90;3.70;;;;;;;13.81;91.45;102525.03;5016089;28;20139;-50
2022/07/12 01:47:21;;;;;;;4.07;3.17;;;;;;;13.76;91.69;102531.66;5016437;28;20046;-50
2022/07/12 01:49:47;;;;;;;3.88;3.58;;;;;;;13.76;91.65;102523.63;5016141;28;20054;-47
2022/07/12 01:52:14;;;;;;;3.88;3.67;;;;;;;13.75;91.65;102526.72;5015937;28;20069;-50
2022/07/12 01:54:42;;;;;;;4.20;3.90;;;;;;;13.72;91.70;102514.16;5014083;28;20074;-51
2022/07/12 01:57:09;;;;;;;3.60;3.40;;;;;;;13.68;91.70;102520.34;5015396;28;20053;-53
2022/07/12 01:59:36;;;;;;;4.00;3.72;;;;;;;13.64;91.71;102510.88;5014159;28;20145;-52
2022/07/12 02:02:03;;;;;;;4.22;3.92;;;;;;;13.62;91.61;102508.63;5015065;28;20077;-50
2022/07/12 02:04:30;;;;;;;4.10;3.65;;;;;;;13.60;91.82;102512.91;5014429;28;20125;-51
2022/07/12 02:06:56;;;;;;;3.95;3.75;;;;;;;13.55;92.14;102502.72;5015189;28;20085;-53
2022/07/12 02:09:23;;;;;;;3.55;3.35;;;;;;;13.51;92.50;102500.13;5014633;28;20058;-51
2022/07/12 02:11:50;;;;;;;4.00;3.80;;;;;;;13.48;92.31;102503.63;5013501;28;20056;-47
2022/07/12 02:14:17;;;;;;;4.80;3.50;;;;;;;13.49;92.58;102499.78;5014921;28;20054;-54
2022/07/12 02:16:43;;;;;;;4.15;3.85;;;;;;;13.50;92.19;102490.59;5013674;28;20405;-52
2022/07/12 02:19:11;;;;;;;3.70;3.47;;;;;;;13.49;92.03;102502.44;5013379;28;20177;-52
2022/07/12 02:21:38;;;;;;;3.67;3.45;;;;;;;13.47;92.13;102493.34;5014331;28;20582;-53
2022/07/12 02:24:06;;;;;;;3.40;3.20;;;;;;;13.48;91.89;102497.53;5014136;28;20054;-53
2022/07/12 02:26:36;;;;;;;4.38;3.97;;;;;;;13.45;91.81;102498.34;5013346;28;20058;-48
2022/07/12 02:29:04;;;;;;;4.47;4.18;;;;;;;13.42;92.17;102501.84;5013692;28;20581;-48
2022/07/12 02:31:32;;;;;;;4.90;4.60;;;;;;;13.38;92.00;102496.59;5014058;28;20065;-48
2022/07/12 02:33:58;;;;;;;5.20;4.85;;;;;;;13.33;92.73;102502.41;5014608;28;20054;-49
2022/07/12 02:36:25;;;;;;;5.22;4.80;;;;;;;13.31;93.18;102504.75;5013757;28;20150;-51
2022/07/12 02:38:51;;;;;;;4.72;4.38;;;;;;;13.28;92.91;102495.63;5014580;28;20141;-48
2022/07/12 02:41:18;;;;;;;4.80;4.50;;;;;;;13.28;93.15;102489.53;5012575;28;20970;-47
2022/07/12 02:43:44;;;;;;;5.22;4.82;;;;;;;13.27;93.06;102494.13;5013987;28;20082;-53
2022/07/12 02:46:12;;;;;;;5.00;4.63;;;;;;;13.25;93.09;102501.81;5014311;28;20514;-49
2022/07/12 02:48:39;;;;;;;5.32;4.63;;;;;;;13.22;92.81;102504.56;5012867;28;20050;-48
2022/07/12 02:51:07;;;;;;;5.68;5.18;;;;;;;13.22;93.09;102501.88;5013882;28;20054;-49
2022/07/12 02:53:35;;;;;;;5.40;5.05;;;;;;;13.22;93.42;102504.56;4978181;28;1034281;-50
2022/07/12 02:56:07;;;;;;;7.40;5.55;;;;;;;13.22;93.51;102512.59;5015449;28;20054;-57
2022/07/12 02:58:34;;;;;;;6.88;5.10;;;;;;;13.20;93.33;102504.22;5015270;28;20105;-48
2022/07/12 03:01:01;;;;;;;5.53;4.97;;;;;;;13.17;93.17;102499.72;5014938;28;20105;-49
2022/07/12 03:03:27;;;;;;;4.82;4.53;;;;;;;13.12;93.19;102508.22;5011315;28;20507;-48
2022/07/12 03:05:54;;;;;;;5.70;4.65;;;;;;;13.09;93.60;102503.69;5015422;28;20078;-49
2022/07/12 03:08:20;;;;;;;5.10;4.82;;;;;;;13.05;93.48;102501.09;5014701;28;20101;-50
2022/07/12 03:10:47;;;;;;;7.13;5.13;;;;;;;13.02;93.92;102497.31;5013625;28;20059;-51
2022/07/12 03:13:13;;;;;;;6.10;4.97;;;;;;;13.02;93.43;102501.91;5015311;28;20050;-47
2022/07/12 03:15:40;;;;;;;4.93;4.55;;;;;;;12.97;93.51;102495.13;5015055;28;20057;-49
2022/07/12 03:18:06;;;;;;;4.63;4.22;;;;;;;12.94;93.50;102492.53;5014704;28;20505;-52
2022/07/12 03:20:33;;;;;;;6.93;3.78;;;;;;;12.89;93.63;102493.75;5014495;28;20054;-50
2022/07/12 03:22:59;;;;;;;4.22;3.92;;;;;;;12.91;93.45;102493.34;5014862;28;20051;-54
2022/07/12 03:25:26;;;;;;;3.90;3.70;;;;;;;12.90;93.30;102492.59;5014740;28;20141;-51
2022/07/12 03:27:52;;;;;;;3.97;3.60;;;;;;;12.88;93.14;102489.56;5014806;28;20053;-48
2022/07/12 03:30:18;;;;;;;3.85;3.55;;;;;;;12.88;93.15;102494.16;5014529;28;20470;-50
2022/07/12 03:32:45;;;;;;;4.00;3.80;;;;;;;12.88;93.23;102494.94;5012796;28;20051;-56
2022/07/12 03:35:11;;;;;;;7.35;4.18;;;;;;;12.83;93.08;102497.31;5014640;28;20058;-50
2022/07/12 03:37:51;;;;;;;3.88;3.65;;;;;;;12.77;93.31;102493.66;5014592;28;20050;-49
2022/07/12 03:40:19;;;;;;;4.03;3.83;;;;;;;12.78;93.31;102497.84;5012503;28;20514;-51
2022/07/12 03:42:47;;;;;;;4.90;3.60;;;;;;;12.77;93.47;102491.72;5014776;28;20058;-47
2022/07/12 03:45:15;;;;;;;4.32;3.92;;;;;;;12.78;93.62;102501.25;5014264;28;20054;-48
2022/07/12 03:47:42;;;;;;;5.28;3.50;;;;;;;12.77;93.52;102504.34;5014210;28;20506;-50
2022/07/12 03:50:12;;;;;;;3.30;3.10;;;;;;;12.77;93.63;102504.34;5012721;28;20073;-53
2022/07/12 03:52:39;;;;;;;4.10;3.80;;;;;;;12.78;93.44;102503.94;5013838;28;20058;-49
2022/07/12 03:55:06;;;;;;;4.00;3.70;;;;;;;12.74;93.22;102499.81;5013921;28;20052;-49
2022/07/12 03:57:33;;;;;;;3.75;3.53;;;;;;;12.70;93.46;102505.22;5013780;28;20478;-48
2022/07/12 04:00:00;;;;;;;4.30;3.80;;;;;;;12.71;93.42;102504.06;5013676;28;20058;-52
2022/07/12 04:02:26;;;;;;;3.95;3.55;;;;;;;12.74;93.14;102511.25;5013154;28;20126;-48
2022/07/12 04:04:52;;;;;;;3.88;3.58;;;;;;;12.78;93.42;102511.19;5013572;28;20054;-50
2022/07/12 04:07:20;;;;;;;3.60;3.30;;;;;;;12.79;93.21;102513.44;5014427;28;20050;-49
2022/07/12 04:09:46;;;;;;;3.90;3.70;;;;;;;12.80;93.03;102517.59;5014343;28;20058;-49
2022/07/12 04:12:12;;;;;;;4.10;3.90;;;;;;;12.83;93.10;102518.69;5014277;28;20053;-51
2022/07/12 04:14:39;;;;;;;3.97;3.75;;;;;;;12.83;93.22;102514.13;5013568;28;20054;-49
2022/07/12 04:17:05;;;;;;;4.45;4.15;;;;;;;12.85;93.33;102516.38;5013910;28;20073;-50
2022/07/12 04:19:33;;;;;;;5.88;4.10;;;;;;;12.90;93.74;102510.56;5029344;28;20510;-51
2022/07/12 04:22:00;;;;;;;6.03;4.03;;;;;;;12.95;93.58;102510.81;5013498;28;20060;-49
2022/07/12 04:24:26;;;;;;;5.45;4.20;;;;;;;12.99;93.32;102510.75;5013995;28;20054;-47
2022/07/12 04:26:53;;;;;;;4.40;4.05;;;;;;;13.01;93.46;102509.19;5012276;28;20050;-47
2022/07/12 04:29:20;;;;;;;7.72;4.05;;;;;;;13.06;93.38;102513.28;5012448;28;20062;-48
2022/07/12 04:31:47;;;;;;;4.00;3.65;;;;;;;13.09;93.38;102503.69;5014177;28;20423;-48
2022/07/12 04:34:16;;;;;;;4.05;3.78;;;;;;;13.13;93.47;102507.03;5013991;28;20574;-49
2022/07/12 04:36:47;;;;;;;4.03;3.72;;;;;;;13.17;93.52;102515.78;5013163;28;20408;-48
2022/07/12 04:39:14;;;;;;;4.22;3.55;;;;;;;13.21;93.37;102508.41;5013987;28;20145;-47
2022/07/12 04:41:40;;;;;;;4.05;3.75;;;;;;;13.26;93.57;102518.63;5013536;28;20061;-47
2022/07/12 04:44:07;;;;;;;4.15;3.80;;;;;;;13.33;93.34;102519.22;5013999;28;20474;-47
2022/07/12 04:46:34;;;;;;;3.70;3.50;;;;;;;13.37;93.49;102513.81;5013227;28;20054;-47
2022/07/12 04:49:00;;;;;;;3.72;3.47;;;;;;;13.41;93.41;102514.47;5013103;28;20059;-48
2022/07/12 04:51:27;;;;;;;4.20;3.90;;;;;;;13.47;93.64;102512.81;5013298;28;20057;-47
2022/07/12 04:53:54;;;;;;;6.25;3.75;;;;;;;13.54;93.43;102515.34;5012859;28;20064;-53
2022/07/12 04:56:20;;;;;;;3.95;3.75;;;;;;;13.60;93.49;102513.66;5013112;28;20064;-48
2022/07/12 04:58:47;;;;;;;4.22;3.92;;;;;;;13.68;93.63;102519.59;5013036;28;20054;-47
2022/07/12 05:01:14;;;;;;;6.60;4.30;;;;;;;13.74;93.72;102517.19;5012493;28;20134;-49
2022/07/12 05:03:44;;;;;;;4.50;4.18;;;;;;;13.80;93.37;102526.22;5011322;28;20065;-48
2022/07/12 05:06:10;;;;;;;5.15;3.90;;;;;;;13.84;93.39;102519.59;5011181;28;20058;-46
2022/07/12 05:08:37;;;;;;;4.70;4.40;;;;;;;13.87;93.89;102526.81;5010887;28;20586;-48
2022/07/12 05:11:03;;;;;;;6.25;4.70;;;;;;;13.91;93.78;102524.78;5012103;28;20147;-46
2022/07/12 05:13:30;;;;;;;4.63;4.20;;;;;;;14.01;93.56;102531.78;5012569;28;20060;-50
2022/07/12 05:15:56;;;;;;;6.18;5.57;;;;;;;14.11;94.54;102534.63;5013170;28;20046;-47
2022/07/12 05:18:23;;;;;;;6.65;6.10;;;;;;;14.25;94.25;102545.75;5013392;28;20065;-47
2022/07/12 05:20:49;;;;;;;7.47;6.97;;;;;;;14.40;94.96;102542.69;5011621;28;20054;-47
2022/07/12 05:23:19;;;;;;;9.48;7.65;;;;;;;14.52;94.83;102553.50;5013064;28;20051;-46
2022/07/12 05:25:46;;;;;;;8.02;7.25;;;;;;;14.67;94.64;102561.94;5013286;28;20110;-47
2022/07/12 05:28:15;;;;;;;7.45;6.85;;;;;;;14.75;94.01;102567.88;5013222;28;20062;-49
2022/07/12 05:30:43;;;;;;;9.55;8.68;;;;;;;14.92;94.59;102577.34;5011441;28;20053;-49
2022/07/12 05:33:12;;;;;;;9.02;8.35;;;;;;;15.17;94.61;102571.31;5013313;28;20054;-47
2022/07/12 05:35:38;;;;;;;8.90;8.30;;;;;;;15.51;93.67;102578.72;5015611;28;20118;-46
2022/07/12 05:38:04;;;;;;;9.45;8.65;;;;;;;15.76;92.81;102578.00;5016238;28;20157;-47
2022/07/12 05:40:31;;;;;;;9.60;8.80;;;;;;;16.62;90.48;102569.38;5016330;28;20061;-47
2022/07/12 05:42:58;;;;;;;8.45;7.85;;;;;;;20.46;75.25;102571.91;5016711;28;20050;-47
2022/07/12 05:45:25;;;;;;;7.60;6.72;;;;;;;22.75;63.54;102572.31;5015630;28;20052;-47
2022/07/12 05:47:52;;;;;;;7.10;6.60;;;;;;;23.79;60.43;102574.75;5016347;28;20517;-47
2022/07/12 05:50:18;;;;;;;6.60;5.97;;;;;;;25.94;52.66;102575.72;5015697;28;20062;-48
2022/07/12 05:55:29;;;;;;;6.40;5.90;;;;;;;28.70;45.37;102585.50;5016029;28;20050;-48
2022/07/12 05:57:56;;;;;;;6.22;5.63;;;;;;;29.81;42.30;102579.19;5016156;28;20065;-49
2022/07/12 06:00:22;;;;;;;8.35;5.38;;;;;;;30.11;42.17;102576.78;5015941;28;20065;-48
2022/07/12 06:02:49;;;;;;;5.70;5.30;;;;;;;30.25;40.78;102579.47;5015774;28;20050;-50
2022/07/12 06:05:16;;;;;;;5.90;5.20;;;;;;;30.18;40.65;102575.38;5015546;28;20054;-49
2022/07/12 06:07:42;;;;;;;5.82;5.38;;;;;;;28.60;44.04;102584.41;5015644;28;20498;-48
2022/07/12 06:10:09;;;;;;;5.75;5.10;;;;;;;27.66;45.80;102581.72;5014828;28;20064;-48
2022/07/12 06:12:37;;;;;;;5.20;4.90;;;;;;;27.31;46.61;102571.69;5015808;28;20054;-48
2022/07/12 06:15:06;;;;;;;7.65;5.40;;;;;;;27.27;47.60;102576.69;5016034;28;20074;-48
2022/07/12 06:17:34;;;;;;;7.28;6.05;;;;;;;28.44;44.74;102566.97;5015001;28;20051;-49
2022/07/12 06:20:01;;;;;;;5.78;5.38;;;;;;;29.22;42.91;102567.63;5014908;28;20058;-48
2022/07/12 06:22:28;;;;;;;7.47;5.18;;;;;;;29.80;41.43;102572.94;5015875;28;20402;-49
2022/07/12 06:24:54;;;;;;;5.05;4.70;;;;;;;30.83;39.56;102576.28;5015876;28;20490;-48
2022/07/12 06:27:20;;;;;;;6.07;4.55;;;;;;;30.71;39.40;102573.13;5015205;28;20495;-48
2022/07/12 06:29:49;;;;;;;5.30;4.90;;;;;;;31.66;38.71;102578.00;5015487;28;20056;-48
2022/07/12 06:32:16;;;;;;;4.93;4.53;;;;;;;32.34;36.14;102577.47;5015667;28;20057;-51
2022/07/12 06:34:43;;;;;;;4.20;4.00;;;;;;;30.96;39.26;102578.94;5014338;28;20057;-50
2022/07/12 06:37:12;;;;;;;4.50;4.20;;;;;;;30.72;40.26;102571.84;5030553;28;20055;-49
2022/07/12 06:39:39;;;;;;;4.45;4.05;;;;;;;31.93;37.81;102581.25;5014607;28;20500;-49
2022/07/12 06:42:05;;;;;;;4.28;4.07;;;;;;;32.36;37.04;102574.91;5013941;28;20068;-51
2022/07/12 06:44:32;;;;;;;4.63;4.15;;;;;;;32.00;36.96;102577.75;5013010;28;20046;-51
2022/07/12 06:46:59;;;;;;;11.80;4.40;;;;;;;31.23;38.65;102578.75;5013099;28;20050;-47
2022/07/12 06:49:26;;;;;;;4.13;3.90;;;;;;;29.95;41.86;102579.88;5011415;28;20050;-50
2022/07/12 06:51:52;;;;;;;3.92;3.63;;;;;;;28.73;44.27;102580.97;5011962;28;20047;-48
2022/07/12 06:54:18;;;;;;;4.20;3.80;;;;;;;28.07;45.85;102570.50;5014202;28;20136;-48
2022/07/12 06:56:45;;;;;;;6.40;3.92;;;;;;;27.56;46.63;102578.59;5014421;28;20166;-49
2022/07/12 06:59:11;;;;;;;14.30;4.30;;;;;;;27.36;47.97;102576.34;5012215;28;20089;-49
2022/07/12 07:01:41;;;;;;;4.57;4.27;;;;;;;26.62;49.17;102574.78;5013896;28;20058;-47
2022/07/12 07:04:08;;;;;;;8.10;3.90;;;;;;;25.78;52.25;102580.75;5012976;28;20054;-53
2022/07/12 07:06:34;;;;;;;7.03;4.47;;;;;;;25.19;53.81;102587.31;5012611;28;20428;-50
2022/07/12 07:09:01;;;;;;;4.32;4.13;;;;;;;24.58;57.20;102579.16;5012513;28;20061;-48
2022/07/12 07:11:27;;;;;;;5.95;4.80;;;;;;;24.00;58.32;102575.28;5014728;28;20058;-48
2022/07/12 07:13:55;;;;;;;9.98;4.70;;;;;;;23.54;59.76;102576.38;5015107;28;20046;-50
2022/07/12 07:16:23;;;;;;;5.20;4.90;;;;;;;23.40;61.03;102577.22;5014939;28;20054;-50
2022/07/12 07:18:50;;;;;;;5.47;4.70;;;;;;;23.07;61.19;102577.78;5014044;28;20050;-49
2022/07/12 07:21:16;;;;;;;5.78;5.20;;;;;;;23.14;63.63;102588.19;5015086;28;20053;-50
2022/07/12 07:23:43;;;;;;;7.82;4.50;;;;;;;23.50;63.25;102583.97;5014461;28;20076;-48
2022/07/12 07:26:09;;;;;;;9.10;4.70;;;;;;;23.91;60.51;102573.56;5014433;28;20540;-49
2022/07/12 07:30:51;;;;;;;4.85;4.43;;;;;;;25.23;57.79;102576.16;5012440;28;20499;-49
2022/07/12 07:31:22;;;;;;;4.55;4.20;;;;;;;26.67;53.49;102573.28;5013966;28;20054;-48
2022/07/12 07:33:49;;;;;;;5.53;4.40;;;;;;;27.99;49.58;102566.88;5014866;28;20514;-48
2022/07/12 07:36:15;;;;;;;4.82;4.38;;;;;;;28.63;46.58;102574.41;5014587;28;20054;-49
2022/07/12 07:38:41;;;;;;;4.28;3.97;;;;;;;29.22;46.61;102578.59;5014341;28;20166;-49
2022/07/12 07:41:08;;;;;;;4.35;3.97;;;;;;;29.68;43.78;102579.19;5014373;28;20072;-50
2022/07/12 07:43:34;;;;;;;3.88;3.58;;;;;;;29.59;43.73;102571.44;5014443;28;20046;-49
2022/07/12 07:46:01;;;;;;;3.30;3.20;;;;;;;28.87;46.47;102577.72;5014590;28;20058;-50
2022/07/12 07:48:28;;;;;;;2.90;2.80;;;;;;;28.15;48.48;102565.91;5014405;28;20051;-53
2022/07/12 07:50:55;;;;;;;2.80;2.70;;;;;;;27.57;49.67;102576.63;5013877;28;20054;-51
2022/07/12 07:53:23;;;;;;;2.88;2.70;;;;;;;27.93;48.19;102577.19;5013539;28;20137;-51
2022/07/12 07:55:50;;;;;;;3.20;3.00;;;;;;;28.36;47.24;102568.13;5013243;28;20136;-51
2022/07/12 07:58:17;;;;;;;3.30;3.10;;;;;;;29.19;44.08;102563.94;5012287;28;20467;-48
2022/07/12 08:00:43;;;;;;;2.70;2.60;;;;;;;28.20;46.96;102567.81;5012166;28;20133;-48
2022/07/12 08:03:10;;;;;;;6.45;3.20;;;;;;;27.10;48.60;102560.47;5012840;28;20053;-50
2022/07/12 08:05:36;;;;;;;3.30;2.70;;;;;;;26.87;51.53;102562.66;5012824;28;20063;-51
2022/07/12 08:08:03;;;;;;;2.90;2.70;;;;;;;26.47;51.34;102560.75;5011379;28;20068;-49
2022/07/12 08:10:30;;;;;;;2.92;2.83;;;;;;;26.37;53.29;102565.06;5012346;28;20137;-48
2022/07/12 08:12:56;;;;;;;3.10;2.90;;;;;;;26.00;51.83;102566.22;5011339;28;20072;-50
2022/07/12 08:15:23;;;;;;;3.00;2.67;;;;;;;26.10;52.93;102570.16;5012521;28;20065;-52
2022/07/12 08:17:49;;;;;;;3.35;3.10;;;;;;;26.16;51.65;102575.59;5012535;28;20442;-52
2022/07/12 08:20:20;;;;;;;2.80;2.67;;;;;;;26.52;54.35;102574.38;5010138;28;20058;-53
2022/07/12 08:23:07;;;;;;;2.75;2.60;;;;;;;26.85;51.67;102573.34;5012950;28;20053;-49
2022/07/12 08:25:34;;;;;;;3.95;3.10;;;;;;;26.75;51.00;102585.13;5011850;28;20054;-50
2022/07/12 08:28:00;;;;;;;3.55;3.25;;;;;;;26.46;50.33;102584.59;5013003;28;20055;-49
2022/07/12 08:30:27;;;;;;;3.92;3.50;;;;;;;26.66;50.33;102582.72;5011372;28;20054;-55
2022/07/12 08:32:55;;;;;;;4.18;3.40;;;;;;;27.14;50.69;102585.53;5008348;28;20047;-55
2022/07/12 08:35:21;;;;;;;3.20;3.00;;;;;;;27.88;48.58;102586.94;5012850;28;20054;-52
2022/07/12 08:37:48;;;;;;;4.07;3.78;;;;;;;28.25;47.31;102590.19;5011832;28;20057;-51
2022/07/12 08:40:15;;;;;;;3.28;3.08;;;;;;;28.71;47.40;102589.72;5011469;28;20105;-54
2022/07/12 08:42:42;;;;;;;3.85;3.55;;;;;;;28.47;45.89;102596.06;5012118;28;20046;-52
2022/07/12 08:45:09;;;;;;;4.90;3.53;;;;;;;28.23;45.50;102587.97;5011566;28;20089;-56
2022/07/12 08:47:37;;;;;;;2.90;2.70;;;;;;;28.27;46.69;102587.66;5012128;28;20142;-51
2022/07/12 08:50:19;;;;;;;3.10;2.90;;;;;;;28.73;46.24;102578.97;5010549;28;20569;-53
2022/07/12 08:52:51;;;;;;;4.35;2.80;;;;;;;28.74;45.97;102564.00;5011812;28;20494;-51
2022/07/12 08:55:18;;;;;;;3.03;2.70;;;;;;;28.82;44.08;102575.09;5011338;28;20133;-52
2022/07/12 08:57:44;;;;;;;4.68;2.67;;;;;;;28.99;45.18;102572.06;5010763;28;20051;-53
2022/07/12 09:00:12;;;;;;;4.47;2.25;;;;;;;29.37;46.35;102565.09;5011711;28;20046;-54
2022/07/12 09:03:03;;;;;;;2.80;2.60;;;;;;;29.88;43.36;102564.81;5011449;28;20050;-56
2022/07/12 09:05:32;;;;;;;4.45;2.38;;;;;;;29.83;44.21;102560.91;5011821;28;20534;-55
2022/07/12 09:08:09;;;;;;;2.28;2.17;;;;;;;30.39;40.60;102554.13;5006503;28;20072;-54
2022/07/12 09:10:54;;;;;;;2.08;2.00;;;;;;;30.67;42.01;102567.22;5029625;28;20442;-55
2022/07/12 09:13:40;;;;;;;2.40;2.20;;;;;;;30.79;40.61;102562.88;5015432;28;20141;-55
2022/07/12 09:16:15;;;;;;;3.05;2.80;;;;;;;30.83;39.35;102570.78;5013973;28;20050;-54
2022/07/12 09:18:43;;;;;;;2.17;2.08;;;;;;;31.15;40.88;102565.72;5012922;28;20137;-53
2022/07/12 09:21:25;;;;;;;2.72;2.38;;;;;;;31.17;37.89;102559.69;5013629;28;20050;-55
2022/07/12 09:24:00;;;;;;;;;;;;;;;31.08;39.70;102560.16;5014572;28;20146;-56
2022/07/12 09:26:32;;;;;;;2.90;2.70;;;;;;;30.99;39.54;102557.88;5014600;28;19925;-54
2022/07/12 09:29:11;;;;;;;4.15;2.50;;;;;;;31.25;37.52;102559.69;5013663;28;20133;-58
2022/07/12 09:37:20;;;;;;;2.42;2.30;;;;;;;31.98;38.28;102556.31;5015641;28;20058;-56
2022/07/12 09:39:52;;;;;;;3.08;2.97;;;;;;;31.82;37.28;102554.78;5014776;28;20050;-54
2022/07/12 09:42:19;;;;;;;2.97;2.88;;;;;;;31.63;39.11;102555.06;5012878;28;20060;-56
2022/07/12 09:44:54;;;;;;;5.90;2.92;;;;;;;31.79;38.17;102553.13;5015508;28;20903;-54
2022/07/12 09:47:22;;;;;;;3.00;2.80;;;;;;;32.25;36.62;102558.72;5015163;28;20054;-56
2022/07/12 09:49:48;;;;;;;2.30;2.20;;;;;;;32.35;37.17;102548.63;5013865;28;20057;-57
2022/07/12 09:52:22;;;;;;;2.83;2.63;;;;;;;32.37;35.64;102557.81;5013360;28;20046;-56
2022/07/12 09:54:50;;;;;;;2.70;2.50;;;;;;;32.26;37.46;102538.91;5014919;28;20137;-55
2022/07/12 09:57:19;;;;;;;2.53;2.42;;;;;;;31.89;35.28;102542.31;5015251;28;20050;-56
2022/07/12 09:59:47;;;;;;;3.20;3.10;;;;;;;31.84;37.02;102543.97;5015038;28;20051;-56
2022/07/12 10:02:17;;;;;;;4.00;2.85;;;;;;;32.27;37.70;102547.91;5012335;28;20051;-59
2022/07/12 10:04:46;;;;;;;3.85;2.70;;;;;;;32.44;36.03;102554.31;5014683;28;20050;-56
2022/07/12 10:07:13;;;;;;;2.70;2.60;;;;;;;32.13;37.53;102550.78;5014747;28;20073;-53
2022/07/12 10:09:51;;;;;;;3.60;3.40;;;;;;;32.00;36.56;102555.72;5012797;28;20542;-54
2022/07/12 10:12:21;;;;;;;3.03;2.60;;;;;;;32.54;37.17;102559.28;5014469;28;20164;-54
2022/07/12 10:14:53;;;;;;;4.05;3.08;;;;;;;31.96;35.60;102558.13;5014454;28;20061;-53
2022/07/12 10:17:24;;;;;;;5.82;2.53;;;;;;;32.00;37.57;102558.47;5013647;28;20060;-53
2022/07/12 10:20:22;;;;;;;2.28;2.17;;;;;;;32.47;36.38;102566.25;5014136;28;20054;-56
2022/07/12 10:22:49;;;;;;;3.83;3.28;;;;;;;32.00;37.37;102561.97;5014879;28;20055;-52
2022/07/12 10:25:25;;;;;;;3.10;3.00;;;;;;;32.11;36.45;102558.88;5013981;28;20426;-55
2022/07/12 10:27:51;;;;;;;2.60;2.40;;;;;;;32.04;37.86;102559.59;5014968;28;20508;-52
2022/07/12 10:30:23;;;;;;;2.10;2.00;;;;;;;32.07;35.18;102552.97;5014467;28;20481;-54
2022/07/12 10:32:53;;;;;;;1.42;1.42;;;;;;;32.05;36.22;102557.56;5014433;28;20055;-51
2022/07/12 10:35:23;;;;;;;;;;;;;;;31.87;35.58;102558.66;5015301;28;20064;-52
2022/07/12 10:38:08;;;;;;;;;;;;;;;32.10;36.00;102557.41;5014055;28;19925;-52
2022/07/12 10:40:35;;;;;;;3.63;2.00;;;;;;;31.88;34.33;102547.09;5013893;28;19957;-55
2022/07/12 10:43:04;;;;;;;2.33;2.13;;;;;;;31.36;34.29;102553.88;5015153;28;20141;-54
2022/07/12 10:45:36;;;;;;;1.53;1.53;;;;;;;30.78;36.43;102553.19;5014048;28;20050;-54
2022/07/12 10:48:12;;;;;;;3.05;2.00;;;;;;;30.38;37.09;102554.69;5015271;28;20219;-50
2022/07/12 10:50:44;;;;;;;2.00;1.90;;;;;;;29.96;39.52;102562.88;5014128;28;20435;-53
2022/07/12 10:53:26;;;;;;;2.40;2.30;;;;;;;29.73;40.30;102559.88;5013036;28;20054;-52
2022/07/12 10:56:07;;;;;;;3.47;2.40;;;;;;;30.33;41.73;102563.81;5014838;28;20108;-54
2022/07/12 10:58:35;;;;;;;3.40;2.90;;;;;;;30.39;35.89;102551.38;5014194;28;20060;-53
2022/07/12 11:01:03;;;;;;;4.30;3.80;;;;;;;30.62;38.12;102553.63;5012885;28;20610;-53
2022/07/12 11:03:32;;;;;;;2.78;2.58;;;;;;;31.03;38.86;102545.25;5013472;28;20072;-52
2022/07/12 11:06:04;;;;;;;2.20;2.00;;;;;;;31.52;36.82;102544.41;5014363;28;20556;-52
2022/07/12 11:08:31;;;;;;;2.78;2.60;;;;;;;31.96;35.52;102542.34;5013955;28;20054;-54
2022/07/12 11:10:58;;;;;;;2.00;1.90;;;;;;;32.54;37.88;102545.47;5013470;28;20529;-52
2022/07/12 11:13:25;;;;;;;2.10;2.00;;;;;;;32.53;35.24;102546.78;5013133;28;20054;-51
2022/07/12 11:16:01;;;;;;;2.40;2.30;;;;;;;32.38;37.73;102550.28;5014343;28;20051;-56
2022/07/12 11:18:32;;;;;;;4.00;2.35;;;;;;;32.13;34.96;102539.78;5013131;28;20505;-57
2022/07/12 11:21:00;;;;;;;2.63;2.45;;;;;;;32.16;35.11;102549.69;5013431;28;20089;-55
2022/07/12 11:23:27;;;;;;;2.60;2.40;;;;;;;32.01;35.57;102543.44;5013340;28;20061;-57
2022/07/12 11:25:55;;;;;;;2.70;2.50;;;;;;;31.74;38.61;102548.53;5011984;28;20065;-57
2022/07/12 11:28:27;;;;;;;4.95;2.50;;;;;;;31.82;37.63;102541.03;5014152;28;20078;-53
2022/07/12 11:31:02;;;;;;;2.30;2.20;;;;;;;32.01;36.33;102533.16;5011652;28;20056;-54
2022/07/12 11:33:43;;;;;;;3.72;2.15;;;;;;;31.61;36.31;102543.88;5013738;28;20138;-56
2022/07/12 11:36:11;;;;;;;2.00;1.90;;;;;;;31.61;35.20;102538.38;5012534;28;20046;-55
2022/07/12 11:38:40;;;;;;;2.00;1.90;;;;;;;31.62;35.24;102536.34;5013998;28;20077;-54
2022/07/12 11:41:11;;;;;;;2.97;2.00;;;;;;;31.77;37.32;102530.91;5013089;28;20063;-55